Airfield :
LOGIN :

Register | Disclaimer

   EN    FR    IT 

 










Legend :    VFR   Marginal VFR   IFR   Intensive IFR   Very Intensive IFR
Visi :
Ceiling :
>= 8 km
>= 3000ft
5 to 8 km
1000 to 3000 ft
1500m to 5 km
500 to 1000 ft
800 to 1500m
200 to 500 ft
< 800m
< 200 ft
Symbols :   Thunderstorms  Fog  Heavy snow  Heavy precipitations  Wind > 20 kt
SIGMETs :     Misc.  Thunderstorms  Icing  Turbulence  Mountain Waves  Volcanic Ashes






- Airport Elevation : 1090 ft
- IATA code : CFE


LFLC - Clermont-Ferrand Auvergne

CURRENT METAR :
  • 011300Z AUTO 36008KT 9999 FEW014 OVC030 06/04 Q1021 NOSIG

EXPIRED METARs :
  • 011230Z AUTO 36009KT 9999 SCT013 SCT019 OVC033 06/04 Q1020 NOSIG
  • 011200Z AUTO 36008KT 9999 FEW015 BKN028 OVC033 06/04 Q1020 NOSIG
  • 011130Z AUTO 36008KT 9999 BKN027 OVC034 06/04 Q1021 NOSIG
  • 011100Z AUTO 35008KT 9999 FEW019 OVC036 06/04 Q1021 TEMPO OVC012
  • 011030Z AUTO 36008KT 9999 FEW017 OVC039 06/04 Q1021 TEMPO OVC012

TAF TAF LFLC
Valid from the 01 at 12:00 until the 02 at 12:00 UTC


011100Z 0112/0212 36008KT 9999 BKN027 OVC034
TEMPO 0119/0212 OVC011
PROB30
TEMPO 0119/0209 4000 -DZRA OVC006
ATIS : +33 4 73 62 74 38



MET'MAP, your aeronautical weather chart ! - Copyright ORBIFLY December 2007 - Disclaimer

ORBIFLY MET'MAP TEAM :

Programming & Development : Alexandra Zaïnal
Original concept : Baudouin d'Aumeries
Technical & hardware support : Manuel Goepfert
Assistance : Marc-Olivier Méhu




SOURCES & CREDITS :

   NOAA